Airfield :
LOGIN :

Register | Disclaimer

   EN    FR    IT 

 










Legend :    VFR   Marginal VFR   IFR   Intensive IFR   Very Intensive IFR
Visi :
Ceiling :
>= 8 km
>= 3000ft
5 to 8 km
1000 to 3000 ft
1500m to 5 km
500 to 1000 ft
800 to 1500m
200 to 500 ft
< 800m
< 200 ft
Symbols :   Thunderstorms  Fog  Heavy snow  Heavy precipitations  Wind > 20 kt
SIGMETs :     Misc.  Thunderstorms  Icing  Turbulence  Mountain Waves  Volcanic Ashes







- Airport Elevation : 1363 ft


ETIC - Grafenwohr Army Air Field

CURRENT METAR :
  • 232004Z AUTO 31020G23KT 9999 -RA FEW004 BKN012 OVC018 13/12 A2979 RMK AO2 RAB03 CIG 012V018 BKN V SCT SLP089 TSNO $

EXPIRED METARs :
  • 231956Z AUTO 29015G22KT 9999 SCT012 BKN018 BKN025 BKN030 OVC042 13/12 A2978 RMK AO2 RAE06DZB12E30DZB39E51 SLP086 P0000 T01330123 TSNO $
  • 231939Z AUTO 28010G15KT 9999 -DZ SCT017 SCT025 BKN030 BKN038 14/14 A2972 RMK AO2 RAE06DZB12E30DZB39 PRESRR SLP065 TSNO $
  • 231930Z AUTO 26008KT 9999 FEW014 SCT030 BKN038 BKN049 14/14 A2970 RMK AO2 RAE06DZB12E30 SLP059 TSNO $
  • 231912Z AUTO 26008G15KT 9999 -DZ SCT014 SCT035 BKN048 14/14 A2971 RMK AO2 RAE06DZB12 PRESFR SLP062 TSNO $
  • 231906Z AUTO 26010G15KT 9999 SCT014 SCT035 BKN050 14/14 A2974 RMK AO2 RAE06 PRESRR SLP072 TSNO $
  • 231856Z AUTO 25006G16KT 9999 -RA BKN016 BKN034 14/14 A2972 RMK AO2 SLP065 P0008 T01400140 TSNO $
  • 231841Z AUTO 25009G15KT 9999 -RA BKN014 BKN020 14/14 A2973 RMK AO2 CIG 014V021 BKN014 V SCT PRESRR SLP069 TSNO $
  • 231826Z AUTO 25005KT 9999 RA FEW010 SCT016 BKN023 OVC085 14/14 A2967 RMK AO2 PRESFR SLP048 TSNO $
  • 231811Z AUTO 25008KT 9999 -RA SCT016 OVC080 14/14 A2970 RMK AO2 PRESRR SLP059 TSNO $
  • 231756Z AUTO 26007G15KT 9000 RA BR FEW007 SCT014 BKN019 OVC080 14/14 A2967 RMK AO2 RAE03DZB03E07RAB07 CIG 016V080 SLP048 P0012 60020 T01410141 10213 20141 55000 TSNO $

TAF AMD TAF ETIC
Valid from the 23 at 19:00 until the 24 at 20:00 UTC


231920Z 2319/2420 28012KT 9999 BKN015 QNH2965INS
BECMG 2401/2402 29012G20KT 9999 BKN020 QNH2970INS
BECMG 2419/2420 30009KT 9999 BKN030 QNH2975INS TX19/2417Z TN06/2403Z
No reported NOTAMs for that airfield.
5 SIGMETs reported for the München FIR (EDMM) :
 
Severe turbulence
EDMM SIGMET 9 VALID 231730/232130 EDZM
EDMM MUNCHEN FIR SEV TURB FCST NW OF LINE N5041 E01039 - N5134 E01456 FL160/245 MOV E WKN=
Severe icing
EDMM SIGMET 13 VALID 231942/232300 EDZM
EDMM MUNCHEN FIR SEV ICE FCST N OF N5040 AND E OF E01205 FL070/230 MOV SE NC=
Squall lined thunderstorms
EDMM SIGMET 12 VALID 231900/232100 EDZM
EDMM MUNCHEN FIR SQL TS OBS APRX 40NM WID LINE BTN N4800 E00931 - N4844 E01348 TOP FL350 MOV S NC=
Severe turbulence
EDMM SIGMET 11 VALID 231900/232100 EDZM
EDMM MUNCHEN FIR SEV TURB FCST S OF N4900 TOP FL060 MOV S WKN=
Severe turbulence
EDMM SIGMET 10 VALID 231900/232200 EDZM
EDMM MUNCHEN FIR SEV TURB FCST S OF N4750 TOP FL140 STNR NC=



MET'MAP, your aeronautical weather chart ! - Copyright ORBIFLY December 2007 - Disclaimer

ORBIFLY MET'MAP TEAM :

Programming & Development : Alexandra Zaïnal
Concept & Development : Baudouin d'Aumeries
Co-Development & Prog : Marc-Olivier Méhu
Technical & hardware support : Manuel Goepfert

Contact : metmap@orbifly.com




SOURCES & CREDITS :

   NOAA